sensor_id;sensor_type;location;lat;lon;timestamp;P1;durP1;ratioP1;P2;durP2;ratioP2
11691;SDS011;33659;42.672;23.354;2023-07-16T00:01:04;9.02;;;6.05;;
11691;SDS011;33659;42.672;23.354;2023-07-16T00:03:31;8.02;;;5.57;;
11691;SDS011;33659;42.672;23.354;2023-07-16T00:05:58;7.45;;;6.00;;
11691;SDS011;33659;42.672;23.354;2023-07-16T00:08:25;8.57;;;6.07;;
11691;SDS011;33659;42.672;23.354;2023-07-16T00:10:53;7.80;;;6.50;;
11691;SDS011;33659;42.672;23.354;2023-07-16T00:13:20;9.55;;;6.10;;
11691;SDS011;33659;42.672;23.354;2023-07-16T00:15:46;6.10;;;5.43;;
11691;SDS011;33659;42.672;23.354;2023-07-16T00:18:13;6.90;;;5.53;;
11691;SDS011;33659;42.672;23.354;2023-07-16T00:20:40;6.03;;;4.80;;
11691;SDS011;33659;42.672;23.354;2023-07-16T00:23:06;9.88;;;5.70;;
11691;SDS011;33659;42.672;23.354;2023-07-16T00:25:33;6.60;;;4.93;;
11691;SDS011;33659;42.672;23.354;2023-07-16T00:28:01;9.75;;;5.25;;
11691;SDS011;33659;42.672;23.354;2023-07-16T00:30:28;9.43;;;5.30;;
11691;SDS011;33659;42.672;23.354;2023-07-16T00:32:55;8.40;;;5.32;;
11691;SDS011;33659;42.672;23.354;2023-07-16T00:35:22;10.85;;;4.38;;
11691;SDS011;33659;42.672;23.354;2023-07-16T00:37:48;5.28;;;4.55;;
11691;SDS011;33659;42.672;23.354;2023-07-16T00:40:15;8.40;;;4.70;;
11691;SDS011;33659;42.672;23.354;2023-07-16T00:42:42;7.28;;;4.72;;
11691;SDS011;33659;42.672;23.354;2023-07-16T00:45:12;10.35;;;5.45;;
11691;SDS011;33659;42.672;23.354;2023-07-16T00:47:40;9.35;;;5.10;;
11691;SDS011;33659;42.672;23.354;2023-07-16T00:50:08;9.57;;;5.03;;
11691;SDS011;33659;42.672;23.354;2023-07-16T00:52:36;5.57;;;4.90;;
11691;SDS011;33659;42.672;23.354;2023-07-16T00:55:04;8.50;;;4.65;;
11691;SDS011;33659;42.672;23.354;2023-07-16T00:57:33;7.03;;;4.25;;
11691;SDS011;33659;42.672;23.354;2023-07-16T01:00:00;6.43;;;4.70;;
11691;SDS011;33659;42.672;23.354;2023-07-16T01:02:28;8.18;;;4.50;;
11691;SDS011;33659;42.672;23.354;2023-07-16T01:04:55;9.25;;;4.40;;
11691;SDS011;33659;42.672;23.354;2023-07-16T01:07:23;10.63;;;4.90;;
11691;SDS011;33659;42.672;23.354;2023-07-16T01:09:51;10.30;;;5.53;;
11691;SDS011;33659;42.672;23.354;2023-07-16T01:12:20;5.15;;;4.65;;
11691;SDS011;33659;42.672;23.354;2023-07-16T01:14:48;5.15;;;3.92;;
11691;SDS011;33659;42.672;23.354;2023-07-16T01:17:17;4.85;;;3.47;;
11691;SDS011;33659;42.672;23.354;2023-07-16T01:19:45;5.60;;;4.22;;
11691;SDS011;33659;42.672;23.354;2023-07-16T01:22:18;7.10;;;5.35;;
11691;SDS011;33659;42.672;23.354;2023-07-16T01:24:58;8.32;;;4.32;;
11691;SDS011;33659;42.672;23.354;2023-07-16T01:27:43;6.00;;;4.00;;
11691;SDS011;33659;42.672;23.354;2023-07-16T01:30:25;6.00;;;4.07;;
11691;SDS011;33659;42.672;23.354;2023-07-16T01:32:53;7.18;;;5.10;;
11691;SDS011;33659;42.672;23.354;2023-07-16T01:35:22;7.55;;;4.32;;
11691;SDS011;33659;42.672;23.354;2023-07-16T01:37:49;6.57;;;4.63;;
11691;SDS011;33659;42.672;23.354;2023-07-16T01:40:16;7.15;;;4.00;;
11691;SDS011;33659;42.672;23.354;2023-07-16T01:42:43;5.00;;;3.75;;
11691;SDS011;33659;42.672;23.354;2023-07-16T01:45:09;5.72;;;4.18;;
11691;SDS011;33659;42.672;23.354;2023-07-16T01:47:44;5.70;;;3.72;;
11691;SDS011;33659;42.672;23.354;2023-07-16T01:50:17;4.40;;;3.75;;
11691;SDS011;33659;42.672;23.354;2023-07-16T01:52:43;4.65;;;3.65;;
11691;SDS011;33659;42.672;23.354;2023-07-16T01:55:10;7.97;;;4.25;;
11691;SDS011;33659;42.672;23.354;2023-07-16T01:57:37;6.13;;;4.38;;
11691;SDS011;33659;42.672;23.354;2023-07-16T02:00:04;5.53;;;3.92;;
11691;SDS011;33659;42.672;23.354;2023-07-16T02:02:33;6.10;;;4.32;;
11691;SDS011;33659;42.672;23.354;2023-07-16T02:05:01;5.25;;;3.85;;
11691;SDS011;33659;42.672;23.354;2023-07-16T02:07:28;7.25;;;3.95;;
11691;SDS011;33659;42.672;23.354;2023-07-16T02:09:55;7.05;;;4.68;;
11691;SDS011;33659;42.672;23.354;2023-07-16T02:12:22;5.15;;;3.70;;
11691;SDS011;33659;42.672;23.354;2023-07-16T02:14:49;6.80;;;4.13;;
11691;SDS011;33659;42.672;23.354;2023-07-16T02:17:15;4.82;;;4.10;;
11691;SDS011;33659;42.672;23.354;2023-07-16T02:19:42;7.30;;;4.20;;
11691;SDS011;33659;42.672;23.354;2023-07-16T02:22:10;5.60;;;3.83;;
11691;SDS011;33659;42.672;23.354;2023-07-16T02:24:37;8.93;;;4.78;;
11691;SDS011;33659;42.672;23.354;2023-07-16T02:27:04;5.97;;;4.60;;
11691;SDS011;33659;42.672;23.354;2023-07-16T02:29:31;3.97;;;3.38;;
11691;SDS011;33659;42.672;23.354;2023-07-16T02:31:58;6.35;;;4.10;;
11691;SDS011;33659;42.672;23.354;2023-07-16T02:34:25;4.07;;;3.53;;
11691;SDS011;33659;42.672;23.354;2023-07-16T02:36:51;4.22;;;3.60;;
11691;SDS011;33659;42.672;23.354;2023-07-16T02:39:19;4.38;;;3.35;;
11691;SDS011;33659;42.672;23.354;2023-07-16T02:41:46;4.63;;;3.70;;
11691;SDS011;33659;42.672;23.354;2023-07-16T02:44:13;5.97;;;4.03;;
11691;SDS011;33659;42.672;23.354;2023-07-16T02:46:39;4.40;;;3.80;;
11691;SDS011;33659;42.672;23.354;2023-07-16T02:49:06;5.47;;;3.55;;
11691;SDS011;33659;42.672;23.354;2023-07-16T02:51:33;7.90;;;3.88;;
11691;SDS011;33659;42.672;23.354;2023-07-16T02:54:00;6.43;;;3.70;;
11691;SDS011;33659;42.672;23.354;2023-07-16T02:56:28;6.68;;;3.67;;
11691;SDS011;33659;42.672;23.354;2023-07-16T02:58:55;3.72;;;3.28;;
11691;SDS011;33659;42.672;23.354;2023-07-16T03:01:21;5.28;;;3.88;;
11691;SDS011;33659;42.672;23.354;2023-07-16T03:03:48;6.63;;;4.22;;
11691;SDS011;33659;42.672;23.354;2023-07-16T03:06:15;4.93;;;3.47;;
11691;SDS011;33659;42.672;23.354;2023-07-16T03:08:42;4.30;;;3.55;;
11691;SDS011;33659;42.672;23.354;2023-07-16T03:11:10;4.03;;;3.55;;
11691;SDS011;33659;42.672;23.354;2023-07-16T03:13:38;5.85;;;3.70;;
11691;SDS011;33659;42.672;23.354;2023-07-16T03:16:05;5.70;;;3.20;;
11691;SDS011;33659;42.672;23.354;2023-07-16T03:18:32;5.07;;;3.78;;
11691;SDS011;33659;42.672;23.354;2023-07-16T03:20:58;4.07;;;3.63;;
11691;SDS011;33659;42.672;23.354;2023-07-16T03:23:25;6.82;;;3.25;;
11691;SDS011;33659;42.672;23.354;2023-07-16T03:25:52;4.57;;;3.25;;
11691;SDS011;33659;42.672;23.354;2023-07-16T03:28:19;4.20;;;3.80;;
11691;SDS011;33659;42.672;23.354;2023-07-16T03:30:47;6.40;;;3.70;;
11691;SDS011;33659;42.672;23.354;2023-07-16T03:33:15;6.32;;;3.90;;
11691;SDS011;33659;42.672;23.354;2023-07-16T03:35:42;6.55;;;4.68;;
11691;SDS011;33659;42.672;23.354;2023-07-16T03:38:09;6.13;;;3.95;;
11691;SDS011;33659;42.672;23.354;2023-07-16T03:40:36;8.10;;;4.38;;
11691;SDS011;33659;42.672;23.354;2023-07-16T03:43:03;5.60;;;4.25;;
11691;SDS011;33659;42.672;23.354;2023-07-16T03:45:29;6.78;;;4.22;;
11691;SDS011;33659;42.672;23.354;2023-07-16T03:47:58;4.18;;;3.80;;
11691;SDS011;33659;42.672;23.354;2023-07-16T03:50:24;8.00;;;4.45;;
11691;SDS011;33659;42.672;23.354;2023-07-16T03:52:51;6.47;;;3.85;;
11691;SDS011;33659;42.672;23.354;2023-07-16T03:55:18;7.32;;;4.00;;
11691;SDS011;33659;42.672;23.354;2023-07-16T03:57:45;4.78;;;4.05;;
11691;SDS011;33659;42.672;23.354;2023-07-16T04:00:11;6.43;;;3.97;;
11691;SDS011;33659;42.672;23.354;2023-07-16T04:02:38;4.55;;;3.83;;
11691;SDS011;33659;42.672;23.354;2023-07-16T04:05:07;4.53;;;3.75;;
11691;SDS011;33659;42.672;23.354;2023-07-16T04:07:34;6.05;;;3.90;;
11691;SDS011;33659;42.672;23.354;2023-07-16T04:10:01;5.55;;;3.90;;
11691;SDS011;33659;42.672;23.354;2023-07-16T04:12:28;8.18;;;4.03;;
11691;SDS011;33659;42.672;23.354;2023-07-16T04:14:55;8.15;;;3.78;;
11691;SDS011;33659;42.672;23.354;2023-07-16T04:17:23;4.60;;;3.65;;
11691;SDS011;33659;42.672;23.354;2023-07-16T04:19:50;5.53;;;3.97;;
11691;SDS011;33659;42.672;23.354;2023-07-16T04:22:18;4.88;;;4.05;;
11691;SDS011;33659;42.672;23.354;2023-07-16T04:24:45;5.65;;;4.38;;
11691;SDS011;33659;42.672;23.354;2023-07-16T04:27:11;10.45;;;4.75;;
11691;SDS011;33659;42.672;23.354;2023-07-16T04:29:38;6.47;;;4.20;;
11691;SDS011;33659;42.672;23.354;2023-07-16T04:32:05;6.78;;;4.32;;
11691;SDS011;33659;42.672;23.354;2023-07-16T04:34:32;5.90;;;4.25;;
11691;SDS011;33659;42.672;23.354;2023-07-16T04:36:59;4.63;;;4.20;;
11691;SDS011;33659;42.672;23.354;2023-07-16T04:39:27;9.57;;;4.55;;
11691;SDS011;33659;42.672;23.354;2023-07-16T04:41:54;5.95;;;4.65;;
11691;SDS011;33659;42.672;23.354;2023-07-16T04:44:20;6.05;;;4.15;;
11691;SDS011;33659;42.672;23.354;2023-07-16T04:46:47;10.30;;;3.88;;
11691;SDS011;33659;42.672;23.354;2023-07-16T04:49:14;6.25;;;4.25;;
11691;SDS011;33659;42.672;23.354;2023-07-16T04:51:40;5.80;;;4.10;;
11691;SDS011;33659;42.672;23.354;2023-07-16T04:54:07;4.60;;;4.20;;
11691;SDS011;33659;42.672;23.354;2023-07-16T04:56:35;6.05;;;4.10;;
11691;SDS011;33659;42.672;23.354;2023-07-16T04:59:02;7.90;;;3.80;;
11691;SDS011;33659;42.672;23.354;2023-07-16T05:01:29;7.18;;;3.90;;
11691;SDS011;33659;42.672;23.354;2023-07-16T05:03:55;5.93;;;4.32;;
11691;SDS011;33659;42.672;23.354;2023-07-16T05:06:22;6.18;;;3.78;;
11691;SDS011;33659;42.672;23.354;2023-07-16T05:08:49;6.82;;;3.88;;
11691;SDS011;33659;42.672;23.354;2023-07-16T05:11:15;5.35;;;3.80;;
11691;SDS011;33659;42.672;23.354;2023-07-16T05:13:43;6.68;;;4.10;;
11691;SDS011;33659;42.672;23.354;2023-07-16T05:16:10;7.25;;;3.88;;
11691;SDS011;33659;42.672;23.354;2023-07-16T05:18:37;5.65;;;3.95;;
11691;SDS011;33659;42.672;23.354;2023-07-16T05:21:04;6.15;;;3.78;;
11691;SDS011;33659;42.672;23.354;2023-07-16T05:23:30;5.40;;;3.92;;
11691;SDS011;33659;42.672;23.354;2023-07-16T05:25:57;7.70;;;4.25;;
11691;SDS011;33659;42.672;23.354;2023-07-16T05:28:24;7.30;;;3.47;;
11691;SDS011;33659;42.672;23.354;2023-07-16T05:30:58;4.85;;;3.72;;
11691;SDS011;33659;42.672;23.354;2023-07-16T05:33:25;6.43;;;3.78;;
11691;SDS011;33659;42.672;23.354;2023-07-16T05:35:52;4.93;;;4.05;;
11691;SDS011;33659;42.672;23.354;2023-07-16T05:38:19;8.15;;;4.28;;
11691;SDS011;33659;42.672;23.354;2023-07-16T05:40:45;4.55;;;3.70;;
11691;SDS011;33659;42.672;23.354;2023-07-16T05:43:12;6.40;;;3.97;;
11691;SDS011;33659;42.672;23.354;2023-07-16T05:45:39;3.83;;;3.40;;
11691;SDS011;33659;42.672;23.354;2023-07-16T05:48:08;3.90;;;3.50;;
11691;SDS011;33659;42.672;23.354;2023-07-16T05:50:34;4.05;;;3.65;;
11691;SDS011;33659;42.672;23.354;2023-07-16T05:53:01;4.22;;;3.78;;
11691;SDS011;33659;42.672;23.354;2023-07-16T05:55:28;3.45;;;3.10;;
11691;SDS011;33659;42.672;23.354;2023-07-16T05:57:55;8.70;;;4.20;;
11691;SDS011;33659;42.672;23.354;2023-07-16T06:00:21;4.30;;;3.67;;
11691;SDS011;33659;42.672;23.354;2023-07-16T06:02:48;4.85;;;3.35;;
11691;SDS011;33659;42.672;23.354;2023-07-16T06:05:16;4.53;;;3.60;;
11691;SDS011;33659;42.672;23.354;2023-07-16T06:07:43;7.90;;;4.38;;
11691;SDS011;33659;42.672;23.354;2023-07-16T06:10:10;5.38;;;3.70;;
11691;SDS011;33659;42.672;23.354;2023-07-16T06:12:37;6.15;;;3.95;;
11691;SDS011;33659;42.672;23.354;2023-07-16T06:15:04;5.40;;;4.38;;
11691;SDS011;33659;42.672;23.354;2023-07-16T06:17:31;4.80;;;4.03;;
11691;SDS011;33659;42.672;23.354;2023-07-16T06:19:58;10.55;;;3.90;;
11691;SDS011;33659;42.672;23.354;2023-07-16T06:22:26;5.85;;;4.00;;
11691;SDS011;33659;42.672;23.354;2023-07-16T06:24:53;4.82;;;3.50;;
11691;SDS011;33659;42.672;23.354;2023-07-16T06:27:19;3.70;;;3.40;;
11691;SDS011;33659;42.672;23.354;2023-07-16T06:29:46;6.25;;;3.85;;
11691;SDS011;33659;42.672;23.354;2023-07-16T06:32:13;5.40;;;3.70;;
11691;SDS011;33659;42.672;23.354;2023-07-16T06:34:40;7.15;;;3.90;;
11691;SDS011;33659;42.672;23.354;2023-07-16T06:37:06;7.18;;;3.70;;
11691;SDS011;33659;42.672;23.354;2023-07-16T06:39:34;6.45;;;4.20;;
11691;SDS011;33659;42.672;23.354;2023-07-16T06:42:01;6.97;;;3.97;;
11691;SDS011;33659;42.672;23.354;2023-07-16T06:44:28;10.75;;;4.47;;
11691;SDS011;33659;42.672;23.354;2023-07-16T06:46:55;5.72;;;3.60;;
11691;SDS011;33659;42.672;23.354;2023-07-16T06:49:22;6.10;;;3.95;;
11691;SDS011;33659;42.672;23.354;2023-07-16T06:51:49;5.25;;;4.13;;
11691;SDS011;33659;42.672;23.354;2023-07-16T06:54:16;4.97;;;3.65;;
11691;SDS011;33659;42.672;23.354;2023-07-16T06:56:44;4.15;;;3.47;;
11691;SDS011;33659;42.672;23.354;2023-07-16T06:59:11;5.63;;;3.40;;
11691;SDS011;33659;42.672;23.354;2023-07-16T07:01:37;7.35;;;3.80;;
11691;SDS011;33659;42.672;23.354;2023-07-16T07:04:04;6.53;;;3.67;;
11691;SDS011;33659;42.672;23.354;2023-07-16T07:06:31;6.30;;;3.80;;
11691;SDS011;33659;42.672;23.354;2023-07-16T07:08:58;5.75;;;3.78;;
11691;SDS011;33659;42.672;23.354;2023-07-16T07:11:24;4.82;;;3.72;;
11691;SDS011;33659;42.672;23.354;2023-07-16T07:13:53;4.85;;;3.22;;
11691;SDS011;33659;42.672;23.354;2023-07-16T07:16:21;3.67;;;3.22;;
11691;SDS011;33659;42.672;23.354;2023-07-16T07:18:48;3.75;;;3.38;;
11691;SDS011;33659;42.672;23.354;2023-07-16T07:21:15;6.95;;;3.28;;
11691;SDS011;33659;42.672;23.354;2023-07-16T07:23:42;5.05;;;3.28;;
11691;SDS011;33659;42.672;23.354;2023-07-16T07:26:08;4.95;;;3.50;;
11691;SDS011;33659;42.672;23.354;2023-07-16T07:28:35;4.95;;;3.30;;
11691;SDS011;33659;42.672;23.354;2023-07-16T07:31:03;7.07;;;3.58;;
11691;SDS011;33659;42.672;23.354;2023-07-16T07:33:30;5.30;;;3.60;;
11691;SDS011;33659;42.672;23.354;2023-07-16T07:35:57;4.07;;;3.47;;
11691;SDS011;33659;42.672;23.354;2023-07-16T07:38:24;5.38;;;4.00;;
11691;SDS011;33659;42.672;23.354;2023-07-16T07:40:51;9.52;;;3.83;;
11691;SDS011;33659;42.672;23.354;2023-07-16T07:43:17;8.38;;;3.50;;
11691;SDS011;33659;42.672;23.354;2023-07-16T07:45:44;5.47;;;3.60;;
11691;SDS011;33659;42.672;23.354;2023-07-16T07:48:12;5.03;;;3.67;;
11691;SDS011;33659;42.672;23.354;2023-07-16T07:50:39;5.53;;;3.83;;
11691;SDS011;33659;42.672;23.354;2023-07-16T07:53:05;3.85;;;3.50;;
11691;SDS011;33659;42.672;23.354;2023-07-16T07:55:33;4.70;;;3.65;;
11691;SDS011;33659;42.672;23.354;2023-07-16T07:58:00;5.20;;;3.83;;
11691;SDS011;33659;42.672;23.354;2023-07-16T08:00:27;10.60;;;4.13;;
11691;SDS011;33659;42.672;23.354;2023-07-16T08:02:53;7.15;;;4.30;;
11691;SDS011;33659;42.672;23.354;2023-07-16T08:05:22;4.28;;;3.85;;
11691;SDS011;33659;42.672;23.354;2023-07-16T08:07:48;6.05;;;3.95;;
11691;SDS011;33659;42.672;23.354;2023-07-16T08:10:16;6.88;;;4.10;;
11691;SDS011;33659;42.672;23.354;2023-07-16T08:12:43;4.32;;;3.92;;
11691;SDS011;33659;42.672;23.354;2023-07-16T08:15:10;5.20;;;4.40;;
11691;SDS011;33659;42.672;23.354;2023-07-16T08:17:39;4.10;;;3.70;;
11691;SDS011;33659;42.672;23.354;2023-07-16T08:20:06;4.75;;;3.90;;
11691;SDS011;33659;42.672;23.354;2023-07-16T08:22:35;4.22;;;3.83;;
11691;SDS011;33659;42.672;23.354;2023-07-16T08:25:02;7.10;;;4.15;;
11691;SDS011;33659;42.672;23.354;2023-07-16T08:27:29;5.25;;;4.50;;
11691;SDS011;33659;42.672;23.354;2023-07-16T08:29:56;5.82;;;4.47;;
11691;SDS011;33659;42.672;23.354;2023-07-16T08:32:23;8.43;;;4.60;;
11691;SDS011;33659;42.672;23.354;2023-07-16T08:34:50;5.07;;;4.13;;
11691;SDS011;33659;42.672;23.354;2023-07-16T08:37:17;6.05;;;4.85;;
11691;SDS011;33659;42.672;23.354;2023-07-16T08:39:45;5.28;;;4.55;;
11691;SDS011;33659;42.672;23.354;2023-07-16T08:42:12;9.13;;;4.70;;
11691;SDS011;33659;42.672;23.354;2023-07-16T08:44:40;6.57;;;4.68;;
11691;SDS011;33659;42.672;23.354;2023-07-16T08:47:07;8.98;;;5.30;;
11691;SDS011;33659;42.672;23.354;2023-07-16T08:49:35;8.43;;;4.40;;
11691;SDS011;33659;42.672;23.354;2023-07-16T08:52:02;5.63;;;4.85;;
11691;SDS011;33659;42.672;23.354;2023-07-16T08:54:31;10.50;;;4.38;;
11691;SDS011;33659;42.672;23.354;2023-07-16T08:56:59;4.75;;;4.28;;
11691;SDS011;33659;42.672;23.354;2023-07-16T08:59:26;9.02;;;5.20;;
11691;SDS011;33659;42.672;23.354;2023-07-16T09:01:53;5.70;;;4.82;;
11691;SDS011;33659;42.672;23.354;2023-07-16T09:04:22;6.90;;;5.18;;
11691;SDS011;33659;42.672;23.354;2023-07-16T09:06:48;8.43;;;5.10;;
11691;SDS011;33659;42.672;23.354;2023-07-16T09:09:19;8.75;;;5.50;;
11691;SDS011;33659;42.672;23.354;2023-07-16T09:11:47;6.60;;;5.30;;
11691;SDS011;33659;42.672;23.354;2023-07-16T09:14:16;9.00;;;4.97;;
11691;SDS011;33659;42.672;23.354;2023-07-16T09:16:47;7.88;;;5.55;;
11691;SDS011;33659;42.672;23.354;2023-07-16T09:19:14;7.10;;;5.50;;
11691;SDS011;33659;42.672;23.354;2023-07-16T09:21:45;8.57;;;5.82;;
11691;SDS011;33659;42.672;23.354;2023-07-16T09:24:12;6.45;;;5.32;;
11691;SDS011;33659;42.672;23.354;2023-07-16T09:26:47;8.80;;;5.38;;
11691;SDS011;33659;42.672;23.354;2023-07-16T09:29:14;5.93;;;5.32;;
11691;SDS011;33659;42.672;23.354;2023-07-16T09:31:52;8.32;;;5.80;;
11691;SDS011;33659;42.672;23.354;2023-07-16T09:34:19;7.50;;;6.47;;
11691;SDS011;33659;42.672;23.354;2023-07-16T09:36:46;8.25;;;5.72;;
11691;SDS011;33659;42.672;23.354;2023-07-16T09:39:14;6.13;;;5.53;;
11691;SDS011;33659;42.672;23.354;2023-07-16T09:41:43;9.25;;;5.70;;
11691;SDS011;33659;42.672;23.354;2023-07-16T09:44:10;7.20;;;5.90;;
11691;SDS011;33659;42.672;23.354;2023-07-16T09:46:38;9.02;;;5.43;;
11691;SDS011;33659;42.672;23.354;2023-07-16T09:49:07;6.82;;;5.60;;
11691;SDS011;33659;42.672;23.354;2023-07-16T09:51:34;9.93;;;6.10;;
11691;SDS011;33659;42.672;23.354;2023-07-16T09:54:02;6.85;;;5.18;;
11691;SDS011;33659;42.672;23.354;2023-07-16T09:56:31;7.35;;;5.93;;
11691;SDS011;33659;42.672;23.354;2023-07-16T09:59:02;8.07;;;5.63;;
11691;SDS011;33659;42.672;23.354;2023-07-16T10:01:34;8.60;;;5.30;;
11691;SDS011;33659;42.672;23.354;2023-07-16T10:04:11;9.48;;;5.88;;
11691;SDS011;33659;42.672;23.354;2023-07-16T10:06:48;7.57;;;5.70;;
11691;SDS011;33659;42.672;23.354;2023-07-16T10:09:31;7.25;;;5.43;;
11691;SDS011;33659;42.672;23.354;2023-07-16T10:14:50;8.65;;;6.50;;
11691;SDS011;33659;42.672;23.354;2023-07-16T10:17:18;7.25;;;5.40;;
11691;SDS011;33659;42.672;23.354;2023-07-16T10:19:51;7.93;;;6.28;;
11691;SDS011;33659;42.672;23.354;2023-07-16T10:22:32;9.13;;;5.72;;
11691;SDS011;33659;42.672;23.354;2023-07-16T10:25:00;14.05;;;6.22;;
11691;SDS011;33659;42.672;23.354;2023-07-16T10:27:28;15.90;;;5.90;;
11691;SDS011;33659;42.672;23.354;2023-07-16T10:29:59;9.13;;;5.95;;
11691;SDS011;33659;42.672;23.354;2023-07-16T10:32:28;10.23;;;5.70;;
11691;SDS011;33659;42.672;23.354;2023-07-16T10:34:57;10.43;;;6.32;;
11691;SDS011;33659;42.672;23.354;2023-07-16T10:37:25;8.35;;;5.88;;
11691;SDS011;33659;42.672;23.354;2023-07-16T10:39:52;12.00;;;6.03;;
11691;SDS011;33659;42.672;23.354;2023-07-16T10:42:20;8.20;;;5.82;;
11691;SDS011;33659;42.672;23.354;2023-07-16T10:44:48;9.85;;;6.32;;
11691;SDS011;33659;42.672;23.354;2023-07-16T10:47:22;9.40;;;6.50;;
11691;SDS011;33659;42.672;23.354;2023-07-16T10:49:49;7.03;;;5.82;;
11691;SDS011;33659;42.672;23.354;2023-07-16T10:52:19;10.85;;;6.07;;
11691;SDS011;33659;42.672;23.354;2023-07-16T10:54:46;11.02;;;5.90;;
11691;SDS011;33659;42.672;23.354;2023-07-16T10:57:13;6.57;;;5.57;;
11691;SDS011;33659;42.672;23.354;2023-07-16T10:59:41;7.57;;;6.45;;
11691;SDS011;33659;42.672;23.354;2023-07-16T11:02:10;8.70;;;6.00;;
11691;SDS011;33659;42.672;23.354;2023-07-16T11:04:38;9.85;;;6.55;;
11691;SDS011;33659;42.672;23.354;2023-07-16T11:07:06;12.38;;;6.65;;
11691;SDS011;33659;42.672;23.354;2023-07-16T11:09:39;10.10;;;6.70;;
11691;SDS011;33659;42.672;23.354;2023-07-16T11:12:08;8.60;;;5.68;;
11691;SDS011;33659;42.672;23.354;2023-07-16T11:14:35;9.75;;;5.95;;
11691;SDS011;33659;42.672;23.354;2023-07-16T11:17:06;10.40;;;5.95;;
11691;SDS011;33659;42.672;23.354;2023-07-16T11:19:34;8.93;;;5.75;;
11691;SDS011;33659;42.672;23.354;2023-07-16T11:22:02;11.82;;;6.53;;
11691;SDS011;33659;42.672;23.354;2023-07-16T11:24:37;6.63;;;5.93;;
11691;SDS011;33659;42.672;23.354;2023-07-16T11:27:05;7.32;;;6.50;;
11691;SDS011;33659;42.672;23.354;2023-07-16T11:29:38;9.70;;;5.75;;
11691;SDS011;33659;42.672;23.354;2023-07-16T11:32:07;9.23;;;5.68;;
11691;SDS011;33659;42.672;23.354;2023-07-16T11:34:34;8.52;;;5.72;;
11691;SDS011;33659;42.672;23.354;2023-07-16T11:37:07;6.53;;;5.55;;
11691;SDS011;33659;42.672;23.354;2023-07-16T11:39:36;7.05;;;6.05;;
11691;SDS011;33659;42.672;23.354;2023-07-16T11:42:03;11.35;;;5.88;;
11691;SDS011;33659;42.672;23.354;2023-07-16T11:44:33;11.00;;;5.80;;
11691;SDS011;33659;42.672;23.354;2023-07-16T11:47:01;8.00;;;5.78;;
11691;SDS011;33659;42.672;23.354;2023-07-16T11:49:29;7.13;;;5.57;;
11691;SDS011;33659;42.672;23.354;2023-07-16T11:51:56;11.35;;;6.10;;
11691;SDS011;33659;42.672;23.354;2023-07-16T11:54:23;8.43;;;6.72;;
11691;SDS011;33659;42.672;23.354;2023-07-16T11:56:51;9.88;;;5.47;;
11691;SDS011;33659;42.672;23.354;2023-07-16T11:59:17;8.23;;;5.60;;
11691;SDS011;33659;42.672;23.354;2023-07-16T12:01:46;8.82;;;6.20;;
11691;SDS011;33659;42.672;23.354;2023-07-16T12:04:14;8.30;;;5.63;;
11691;SDS011;33659;42.672;23.354;2023-07-16T12:06:41;7.95;;;5.93;;
11691;SDS011;33659;42.672;23.354;2023-07-16T12:09:08;6.88;;;5.65;;
11691;SDS011;33659;42.672;23.354;2023-07-16T12:11:34;8.10;;;5.75;;
11691;SDS011;33659;42.672;23.354;2023-07-16T12:14:04;10.13;;;6.32;;
11691;SDS011;33659;42.672;23.354;2023-07-16T12:16:31;11.30;;;5.65;;
11691;SDS011;33659;42.672;23.354;2023-07-16T12:18:58;8.45;;;6.18;;
11691;SDS011;33659;42.672;23.354;2023-07-16T12:21:25;8.43;;;5.38;;
11691;SDS011;33659;42.672;23.354;2023-07-16T12:23:51;6.88;;;5.38;;
11691;SDS011;33659;42.672;23.354;2023-07-16T12:26:18;6.88;;;5.30;;
11691;SDS011;33659;42.672;23.354;2023-07-16T12:28:45;7.28;;;5.47;;
11691;SDS011;33659;42.672;23.354;2023-07-16T12:31:13;7.13;;;5.10;;
11691;SDS011;33659;42.672;23.354;2023-07-16T12:33:40;9.65;;;5.45;;
11691;SDS011;33659;42.672;23.354;2023-07-16T12:36:07;8.48;;;5.65;;
11691;SDS011;33659;42.672;23.354;2023-07-16T12:38:33;6.50;;;4.95;;
11691;SDS011;33659;42.672;23.354;2023-07-16T12:41:00;6.03;;;5.18;;
11691;SDS011;33659;42.672;23.354;2023-07-16T12:43:27;6.97;;;5.47;;
11691;SDS011;33659;42.672;23.354;2023-07-16T12:45:53;7.75;;;5.28;;
11691;SDS011;33659;42.672;23.354;2023-07-16T12:48:22;9.57;;;4.63;;
11691;SDS011;33659;42.672;23.354;2023-07-16T12:50:48;5.43;;;4.82;;
11691;SDS011;33659;42.672;23.354;2023-07-16T12:53:15;8.30;;;5.80;;
11691;SDS011;33659;42.672;23.354;2023-07-16T12:55:42;5.93;;;5.10;;
11691;SDS011;33659;42.672;23.354;2023-07-16T12:58:08;5.47;;;4.95;;
11691;SDS011;33659;42.672;23.354;2023-07-16T13:00:35;8.63;;;4.90;;
11691;SDS011;33659;42.672;23.354;2023-07-16T13:03:02;5.47;;;4.95;;
11691;SDS011;33659;42.672;23.354;2023-07-16T13:05:31;9.52;;;5.68;;
11691;SDS011;33659;42.672;23.354;2023-07-16T13:07:57;6.95;;;5.45;;
11691;SDS011;33659;42.672;23.354;2023-07-16T13:10:24;7.97;;;5.07;;
11691;SDS011;33659;42.672;23.354;2023-07-16T13:12:51;6.85;;;5.15;;
11691;SDS011;33659;42.672;23.354;2023-07-16T13:15:18;7.07;;;5.28;;
11691;SDS011;33659;42.672;23.354;2023-07-16T13:17:45;6.30;;;5.32;;
11691;SDS011;33659;42.672;23.354;2023-07-16T13:20:12;7.13;;;5.63;;
11691;SDS011;33659;42.672;23.354;2023-07-16T13:22:41;10.13;;;5.70;;
11691;SDS011;33659;42.672;23.354;2023-07-16T13:25:08;8.77;;;5.20;;
11691;SDS011;33659;42.672;23.354;2023-07-16T13:27:34;5.43;;;4.90;;
11691;SDS011;33659;42.672;23.354;2023-07-16T13:30:01;9.63;;;5.25;;
11691;SDS011;33659;42.672;23.354;2023-07-16T13:32:28;7.93;;;5.13;;
11691;SDS011;33659;42.672;23.354;2023-07-16T13:34:55;7.80;;;5.45;;
11691;SDS011;33659;42.672;23.354;2023-07-16T13:37:21;7.88;;;5.03;;
11691;SDS011;33659;42.672;23.354;2023-07-16T13:39:49;7.35;;;5.43;;
11691;SDS011;33659;42.672;23.354;2023-07-16T13:42:16;6.72;;;4.72;;
11691;SDS011;33659;42.672;23.354;2023-07-16T13:44:43;6.50;;;5.28;;
11691;SDS011;33659;42.672;23.354;2023-07-16T13:47:10;9.25;;;5.50;;
11691;SDS011;33659;42.672;23.354;2023-07-16T13:49:36;10.90;;;5.38;;
11691;SDS011;33659;42.672;23.354;2023-07-16T13:52:03;7.85;;;5.45;;
11691;SDS011;33659;42.672;23.354;2023-07-16T13:54:30;8.40;;;5.18;;
11691;SDS011;33659;42.672;23.354;2023-07-16T13:56:58;9.60;;;5.45;;
11691;SDS011;33659;42.672;23.354;2023-07-16T13:59:25;8.73;;;5.72;;
11691;SDS011;33659;42.672;23.354;2023-07-16T14:01:58;10.27;;;5.60;;
11691;SDS011;33659;42.672;23.354;2023-07-16T14:04:26;9.60;;;5.70;;
11691;SDS011;33659;42.672;23.354;2023-07-16T14:06:52;10.23;;;5.50;;
11691;SDS011;33659;42.672;23.354;2023-07-16T14:09:20;8.68;;;6.28;;
11691;SDS011;33659;42.672;23.354;2023-07-16T14:11:47;9.32;;;5.45;;
11691;SDS011;33659;42.672;23.354;2023-07-16T14:14:15;10.88;;;6.03;;
11691;SDS011;33659;42.672;23.354;2023-07-16T14:16:42;13.02;;;5.35;;
11691;SDS011;33659;42.672;23.354;2023-07-16T14:19:09;10.27;;;5.47;;
11691;SDS011;33659;42.672;23.354;2023-07-16T14:21:37;6.90;;;5.03;;
11691;SDS011;33659;42.672;23.354;2023-07-16T14:24:04;7.80;;;4.75;;
11691;SDS011;33659;42.672;23.354;2023-07-16T14:26:31;8.05;;;6.30;;
11691;SDS011;33659;42.672;23.354;2023-07-16T14:28:58;7.22;;;5.10;;
11691;SDS011;33659;42.672;23.354;2023-07-16T14:31:26;5.78;;;5.05;;
11691;SDS011;33659;42.672;23.354;2023-07-16T14:33:53;8.80;;;5.10;;
11691;SDS011;33659;42.672;23.354;2023-07-16T14:36:20;9.65;;;5.07;;
11691;SDS011;33659;42.672;23.354;2023-07-16T14:38:47;7.78;;;5.30;;